createdAt,value
2022-12-09T00:00:11.986Z,22.58
2022-12-09T00:02:40.848Z,20.23
2022-12-09T00:05:09.992Z,19.95
2022-12-09T00:07:38.143Z,19.60
2022-12-09T00:10:07.833Z,22.38
2022-12-09T00:12:36.150Z,20.17
2022-12-09T00:15:06.063Z,22.63
2022-12-09T00:17:34.307Z,21.23
2022-12-09T00:20:02.520Z,17.83
2022-12-09T00:22:30.566Z,19.92
2022-12-09T00:24:58.477Z,17.90
2022-12-09T00:27:26.391Z,17.13
2022-12-09T00:29:54.314Z,19.15
2022-12-09T00:32:23.768Z,16.13
2022-12-09T00:34:51.810Z,16.05
2022-12-09T00:37:19.745Z,16.70
2022-12-09T00:39:48.863Z,12.82
2022-12-09T00:42:16.975Z,15.40
2022-12-09T00:44:44.913Z,13.50
2022-12-09T00:47:12.993Z,12.13
2022-12-09T00:49:42.358Z,12.07
2022-12-09T00:52:10.369Z,14.43
2022-12-09T00:54:38.359Z,11.70
2022-12-09T00:57:07.034Z,13.25
2022-12-09T00:59:35.085Z,12.63
2022-12-09T01:02:03.421Z,13.40
2022-12-09T01:04:31.857Z,13.65
2022-12-09T01:07:01.208Z,12.82
2022-12-09T01:09:29.214Z,11.93
2022-12-09T01:11:57.203Z,15.27
2022-12-09T01:14:25.313Z,13.52
2022-12-09T01:16:53.527Z,12.30
2022-12-09T01:19:21.497Z,13.50
2022-12-09T01:21:49.560Z,12.75
2022-12-09T01:24:19.293Z,15.15
2022-12-09T01:26:50.168Z,14.15
2022-12-09T01:29:20.219Z,13.52
2022-12-09T01:31:50.407Z,9.93
2022-12-09T01:34:18.693Z,11.23
2022-12-09T01:36:47.848Z,14.32
2022-12-09T01:39:17.327Z,11.57
2022-12-09T01:41:46.939Z,11.63
2022-12-09T01:44:18.906Z,12.60
2022-12-09T01:46:47.883Z,13.67
2022-12-09T01:49:20.516Z,12.40
2022-12-09T01:52:02.156Z,12.35
2022-12-09T01:54:32.604Z,9.88
2022-12-09T01:57:03.036Z,12.13
2022-12-09T01:59:32.053Z,11.25
2022-12-09T02:02:03.443Z,12.77
2022-12-09T02:04:35.086Z,13.75
2022-12-09T02:07:07.643Z,11.05
2022-12-09T02:09:36.908Z,12.70
2022-12-09T02:12:16.766Z,12.02
2022-12-09T02:14:51.131Z,11.30
2022-12-09T02:17:33.703Z,11.63
2022-12-09T02:20:09.794Z,11.23
2022-12-09T02:22:43.584Z,12.50
2022-12-09T02:25:24.358Z,13.60
2022-12-09T02:28:13.551Z,14.27
2022-12-09T02:30:51.496Z,16.92
2022-12-09T02:33:35.456Z,14.85
2022-12-09T02:36:15.439Z,14.73
2022-12-09T02:38:44.555Z,16.08
2022-12-09T02:41:17.761Z,14.93
2022-12-09T02:43:52.013Z,14.80
2022-12-09T02:46:26.826Z,15.52
2022-12-09T02:48:58.507Z,15.10
2022-12-09T02:51:31.567Z,16.60
2022-12-09T02:54:04.005Z,16.10
2022-12-09T02:56:35.818Z,18.40
2022-12-09T02:59:04.568Z,13.88
2022-12-09T03:01:39.242Z,12.45
2022-12-09T03:04:09.485Z,15.38
2022-12-09T03:06:46.213Z,15.75
2022-12-09T03:09:18.789Z,14.30
2022-12-09T03:11:48.725Z,15.18
2022-12-09T03:14:22.060Z,12.95
2022-12-09T03:16:54.572Z,13.65
2022-12-09T03:19:27.815Z,9.48
2022-12-09T03:21:59.231Z,13.40
2022-12-09T03:24:33.628Z,13.40
2022-12-09T03:27:06.550Z,15.07
2022-12-09T03:29:38.076Z,12.45
2022-12-09T03:32:06.850Z,14.40
2022-12-09T03:34:39.776Z,13.77
2022-12-09T03:37:10.389Z,14.80
2022-12-09T03:39:41.019Z,13.57
2022-12-09T03:42:15.917Z,13.00
2022-12-09T03:44:48.397Z,13.00
2022-12-09T03:47:16.427Z,12.88
2022-12-09T03:49:44.754Z,15.40
2022-12-09T03:52:20.024Z,13.88
2022-12-09T03:54:51.459Z,12.90
2022-12-09T03:57:21.352Z,14.48
2022-12-09T03:59:54.713Z,11.55
2022-12-09T04:02:23.632Z,14.32
2022-12-09T04:04:52.536Z,15.43
2022-12-09T04:07:22.198Z,15.77
2022-12-09T04:09:50.306Z,14.57
2022-12-09T04:12:18.844Z,13.60
2022-12-09T04:14:47.087Z,14.30
2022-12-09T04:17:15.408Z,14.57
2022-12-09T04:19:43.381Z,15.20
2022-12-09T04:22:11.694Z,14.25
2022-12-09T04:24:41.185Z,16.02
2022-12-09T04:27:10.728Z,13.70
2022-12-09T04:29:39.907Z,16.20
2022-12-09T04:32:07.989Z,16.42
2022-12-09T04:34:36.149Z,14.38
2022-12-09T04:37:04.509Z,16.85
2022-12-09T04:39:32.973Z,15.38
2022-12-09T04:42:02.639Z,16.20
2022-12-09T04:44:30.600Z,15.60
2022-12-09T04:46:58.654Z,15.40
2022-12-09T04:49:26.879Z,16.73
2022-12-09T04:51:54.783Z,16.05
2022-12-09T04:54:22.914Z,16.17
2022-12-09T04:56:51.009Z,16.77
2022-12-09T04:59:20.452Z,17.45
2022-12-09T05:01:48.435Z,16.63
2022-12-09T05:04:16.612Z,19.15
2022-12-09T05:06:44.907Z,15.93
2022-12-09T05:09:14.491Z,17.30
2022-12-09T05:11:42.664Z,16.05
2022-12-09T05:14:10.784Z,15.02
2022-12-09T05:16:40.620Z,17.13
2022-12-09T05:19:08.733Z,15.43
2022-12-09T05:21:37.450Z,15.48
2022-12-09T05:24:06.422Z,16.20
2022-12-09T05:26:34.496Z,13.77
2022-12-09T05:29:02.552Z,16.92
2022-12-09T05:31:31.197Z,18.17
2022-12-09T05:34:00.680Z,16.42
2022-12-09T05:36:29.129Z,14.68
2022-12-09T05:38:57.919Z,17.60
2022-12-09T05:41:26.299Z,16.45
2022-12-09T05:43:54.825Z,16.73
2022-12-09T05:46:23.487Z,16.63
2022-12-09T05:48:51.727Z,17.35
2022-12-09T05:51:24.807Z,17.67
2022-12-09T05:53:53.814Z,15.60
2022-12-09T05:56:23.612Z,14.43
2022-12-09T05:58:54.653Z,16.25
2022-12-09T06:01:23.776Z,14.05
2022-12-09T06:03:54.245Z,17.25
2022-12-09T06:06:30.096Z,16.85
2022-12-09T06:09:00.552Z,18.20
2022-12-09T06:11:29.388Z,16.95
2022-12-09T06:13:58.231Z,22.42
2022-12-09T06:16:26.570Z,21.95
2022-12-09T06:18:55.454Z,16.60
2022-12-09T06:21:25.678Z,19.65
2022-12-09T06:23:54.551Z,19.13
2022-12-09T06:26:24.557Z,17.65
2022-12-09T06:28:53.684Z,16.88
2022-12-09T06:31:22.173Z,16.30
2022-12-09T06:33:55.870Z,16.92
2022-12-09T06:36:27.261Z,19.40
2022-12-09T06:38:56.835Z,22.23
2022-12-09T06:41:25.556Z,18.98
2022-12-09T06:43:54.046Z,19.35
2022-12-09T06:46:24.691Z,18.05
2022-12-09T06:48:53.860Z,19.58
2022-12-09T06:51:23.052Z,19.58
2022-12-09T06:53:53.404Z,21.73
2022-12-09T06:56:21.652Z,19.23
2022-12-09T06:58:50.031Z,20.27
2022-12-09T07:01:21.142Z,20.73
2022-12-09T07:03:51.627Z,18.15
2022-12-09T07:06:26.202Z,20.75
2022-12-09T07:08:56.457Z,19.33
2022-12-09T07:11:24.966Z,19.27
2022-12-09T07:13:53.496Z,17.05
2022-12-09T07:16:21.961Z,18.65
2022-12-09T07:18:50.383Z,20.13
2022-12-09T07:21:20.741Z,18.67
2022-12-09T07:23:49.864Z,18.63
2022-12-09T07:26:19.960Z,19.50
2022-12-09T07:28:50.411Z,16.83
2022-12-09T07:31:20.583Z,21.13
2022-12-09T07:33:49.317Z,17.90
2022-12-09T07:36:21.349Z,18.92
2022-12-09T07:38:50.314Z,13.43
2022-12-09T07:41:20.322Z,16.13
2022-12-09T07:43:48.923Z,14.85
2022-12-09T07:46:20.032Z,15.02
2022-12-09T07:48:50.323Z,17.88
2022-12-09T07:51:18.603Z,18.27
2022-12-09T07:53:47.927Z,16.05
2022-12-09T07:56:17.735Z,14.93
2022-12-09T07:58:48.764Z,16.00
2022-12-09T08:01:19.083Z,19.45
2022-12-09T08:03:48.463Z,14.73
2022-12-09T08:06:18.693Z,17.40
2022-12-09T08:08:47.652Z,13.68
2022-12-09T08:11:19.765Z,17.77
2022-12-09T08:13:49.740Z,15.00
2022-12-09T08:16:21.498Z,17.05
2022-12-09T08:18:50.831Z,16.52
2022-12-09T08:21:22.129Z,21.17
2022-12-09T08:23:50.952Z,15.13
2022-12-09T08:26:21.428Z,16.63
2022-12-09T08:28:51.685Z,16.52
2022-12-09T08:31:21.943Z,16.83
2022-12-09T08:33:51.405Z,16.58
2022-12-09T08:36:21.673Z,18.35
2022-12-09T08:38:50.148Z,15.77
2022-12-09T08:41:20.252Z,16.55
2022-12-09T08:43:50.027Z,19.00
2022-12-09T08:46:18.130Z,21.00
2022-12-09T08:48:46.666Z,20.92
2022-12-09T08:51:15.204Z,17.88
2022-12-09T08:53:43.620Z,18.25
2022-12-09T08:56:12.888Z,21.63
2022-12-09T08:58:42.250Z,21.00
2022-12-09T09:01:17.506Z,20.90
2022-12-09T09:03:46.995Z,20.33
2022-12-09T09:06:16.369Z,21.23
2022-12-09T09:08:45.304Z,23.42
2022-12-09T09:11:16.095Z,22.35
2022-12-09T09:13:46.047Z,24.83
2022-12-09T09:16:19.240Z,22.65
2022-12-09T09:21:17.748Z,23.85
2022-12-09T09:23:46.146Z,21.95
2022-12-09T09:26:16.593Z,22.27
2022-12-09T09:28:45.331Z,26.20
2022-12-09T09:31:16.663Z,25.83
2022-12-09T09:33:46.357Z,26.63
2022-12-09T09:36:20.231Z,24.05
2022-12-09T09:38:49.253Z,21.13
2022-12-09T09:41:25.635Z,23.95
2022-12-09T09:43:55.201Z,25.35
2022-12-09T09:46:35.078Z,21.30
2022-12-09T09:49:06.928Z,25.15
2022-12-09T09:51:36.558Z,26.40
2022-12-09T09:54:09.014Z,25.23
2022-12-09T09:56:41.178Z,27.20
2022-12-09T09:59:21.542Z,26.00
2022-12-09T10:02:00.354Z,28.50
2022-12-09T10:04:40.500Z,28.20
2022-12-09T10:07:16.980Z,23.48
2022-12-09T10:09:56.685Z,29.45
2022-12-09T10:12:33.209Z,26.00
2022-12-09T10:15:10.541Z,29.67
2022-12-09T10:17:48.801Z,28.77
2022-12-09T10:20:20.691Z,29.75
2022-12-09T10:22:53.262Z,32.92
2022-12-09T10:25:24.888Z,27.58
2022-12-09T10:27:58.193Z,33.33
2022-12-09T10:33:03.906Z,33.22
2022-12-09T10:35:34.658Z,31.50
2022-12-09T10:38:08.359Z,29.95
2022-12-09T10:40:44.461Z,33.00
2022-12-09T10:43:35.181Z,29.17
2022-12-09T10:46:17.803Z,30.35
2022-12-09T10:48:56.221Z,32.75
2022-12-09T10:51:28.785Z,30.67
2022-12-09T10:54:01.153Z,29.83
2022-12-09T10:56:32.462Z,29.73
2022-12-09T10:59:12.790Z,32.83
2022-12-09T11:01:52.195Z,29.02
2022-12-09T11:04:26.367Z,35.35
2022-12-09T11:07:00.192Z,34.20
2022-12-09T11:09:31.029Z,34.78
2022-12-09T11:12:00.446Z,35.80
2022-12-09T11:14:34.944Z,32.83
2022-12-09T11:17:14.769Z,35.58
2022-12-09T11:19:44.748Z,33.70
2022-12-09T11:22:38.615Z,33.72
2022-12-09T11:25:20.093Z,33.85
2022-12-09T11:27:52.414Z,35.35
2022-12-09T11:30:23.486Z,33.22
2022-12-09T11:33:01.569Z,36.05
2022-12-09T11:35:34.961Z,34.65
2022-12-09T11:38:18.401Z,33.97
2022-12-09T11:43:36.047Z,35.03
2022-12-09T11:46:17.316Z,33.30
2022-12-09T11:48:53.136Z,32.63
2022-12-09T11:51:23.873Z,32.42
2022-12-09T11:53:58.870Z,29.63
2022-12-09T11:56:30.552Z,33.05
2022-12-09T11:59:03.092Z,29.55
2022-12-09T12:01:42.934Z,24.83
2022-12-09T12:04:12.440Z,32.42
2022-12-09T12:06:46.887Z,33.92
2022-12-09T12:09:24.192Z,34.42
2022-12-09T12:12:07.274Z,38.05
2022-12-09T12:14:38.553Z,34.60
2022-12-09T12:17:14.538Z,33.67
2022-12-09T12:19:44.419Z,32.67
2022-12-09T12:22:29.816Z,32.45
2022-12-09T12:25:25.391Z,34.58
2022-12-09T12:28:10.094Z,35.78
2022-12-09T12:30:51.037Z,41.25
2022-12-09T12:34:07.780Z,39.42
2022-12-09T12:36:38.763Z,43.03
2022-12-09T12:39:15.097Z,40.72
2022-12-09T12:41:53.164Z,41.20
2022-12-09T12:44:57.224Z,39.55
2022-12-09T12:47:31.000Z,41.00
2022-12-09T12:50:16.060Z,40.17
2022-12-09T12:52:57.583Z,34.65
2022-12-09T12:55:43.478Z,40.55
2022-12-09T12:58:19.603Z,40.88
2022-12-09T13:01:00.509Z,39.33
2022-12-09T13:03:35.069Z,39.30
2022-12-09T13:06:03.666Z,40.67
2022-12-09T13:08:38.138Z,38.03
2022-12-09T13:11:09.717Z,41.78
2022-12-09T13:13:44.540Z,43.78
2022-12-09T13:16:19.228Z,38.97
2022-12-09T13:18:48.754Z,41.47
2022-12-09T13:21:17.716Z,41.50
2022-12-09T13:23:54.652Z,42.20
2022-12-09T13:26:31.610Z,42.72
2022-12-09T13:29:06.354Z,39.75
2022-12-09T13:31:37.672Z,45.30
2022-12-09T13:34:19.494Z,43.67
2022-12-09T13:36:49.462Z,42.38
2022-12-09T13:39:50.768Z,42.95
2022-12-09T13:42:52.032Z,44.53
2022-12-09T13:45:27.834Z,39.55
2022-12-09T13:47:56.821Z,42.40
2022-12-09T13:50:28.498Z,39.85
2022-12-09T13:52:59.856Z,40.47
2022-12-09T13:55:39.571Z,39.65
2022-12-09T13:58:28.831Z,39.55
2022-12-09T14:01:13.930Z,40.33
2022-12-09T14:03:52.665Z,38.70
2022-12-09T14:06:24.901Z,39.60
2022-12-09T14:08:56.725Z,41.45
2022-12-09T14:11:55.277Z,42.00
2022-12-09T14:14:53.969Z,37.10
2022-12-09T14:17:58.914Z,44.35
2022-12-09T14:20:37.182Z,37.42
2022-12-09T14:23:17.864Z,38.55
2022-12-09T14:26:05.817Z,41.88
2022-12-09T14:29:00.639Z,39.78
2022-12-09T14:31:51.830Z,37.55
2022-12-09T14:34:28.504Z,40.80
2022-12-09T14:37:09.325Z,38.60
2022-12-09T14:39:45.963Z,38.42
2022-12-09T14:42:25.769Z,40.63
2022-12-09T14:45:01.235Z,36.95
2022-12-09T14:47:31.925Z,38.90
2022-12-09T14:50:09.307Z,40.22
2022-12-09T14:52:38.988Z,40.95
2022-12-09T14:55:09.415Z,40.42
2022-12-09T14:57:41.500Z,40.00
2022-12-09T15:00:30.547Z,42.55
2022-12-09T15:03:31.251Z,40.55
2022-12-09T15:05:56.300Z,40.92
2022-12-09T15:08:34.878Z,36.60
2022-12-09T15:11:08.935Z,36.78
2022-12-09T15:13:39.920Z,35.17
2022-12-09T15:16:10.120Z,37.40
2022-12-09T15:18:40.094Z,36.60
2022-12-09T15:21:09.045Z,37.83
2022-12-09T15:23:40.644Z,56.80
2022-12-09T15:26:19.185Z,53.55
2022-12-09T15:28:49.695Z,54.47
2022-12-09T15:31:19.764Z,48.65
2022-12-09T15:33:50.462Z,50.65
2022-12-09T15:36:23.039Z,48.00
2022-12-09T15:39:00.283Z,43.53
2022-12-09T15:41:52.158Z,44.28
2022-12-09T15:44:22.775Z,41.97
2022-12-09T15:46:52.946Z,46.30
2022-12-09T15:49:27.206Z,43.78
2022-12-09T15:51:57.116Z,46.65
2022-12-09T15:54:28.812Z,45.30
2022-12-09T15:56:58.790Z,47.83
2022-12-09T15:59:31.358Z,47.40
2022-12-09T16:02:00.448Z,48.28
2022-12-09T16:04:31.347Z,53.83
2022-12-09T16:07:06.431Z,50.40
2022-12-09T16:09:36.480Z,51.05
2022-12-09T16:12:04.744Z,54.55
2022-12-09T16:14:43.563Z,50.58
2022-12-09T16:17:21.511Z,52.00
2022-12-09T16:19:49.738Z,50.40
2022-12-09T16:22:22.591Z,50.72
2022-12-09T16:27:46.255Z,57.03
2022-12-09T16:30:16.495Z,60.90
2022-12-09T16:32:46.329Z,71.63
2022-12-09T16:35:22.368Z,53.47
2022-12-09T16:38:19.608Z,58.70
2022-12-09T16:41:12.624Z,53.80
2022-12-09T16:44:01.374Z,86.57
2022-12-09T16:46:41.077Z,53.20
2022-12-09T16:49:09.050Z,55.67
2022-12-09T16:51:38.795Z,56.00
2022-12-09T16:54:20.013Z,58.72
2022-12-09T16:56:51.284Z,59.60
2022-12-09T16:59:19.252Z,51.05
2022-12-09T17:01:47.222Z,54.22
2022-12-09T17:04:18.588Z,52.03
2022-12-09T17:06:46.838Z,48.50
2022-12-09T17:09:14.888Z,54.60
2022-12-09T17:11:48.532Z,49.28
2022-12-09T17:14:18.970Z,52.85
2022-12-09T17:16:46.966Z,55.22
2022-12-09T17:19:14.935Z,50.40
2022-12-09T17:21:43.007Z,54.72
2022-12-09T17:24:12.319Z,53.58
2022-12-09T17:26:40.217Z,49.58
2022-12-09T17:29:08.139Z,53.40
2022-12-09T17:31:37.462Z,49.50
2022-12-09T17:34:05.689Z,48.33
2022-12-09T17:36:33.597Z,48.03
2022-12-09T17:39:02.594Z,45.90
2022-12-09T17:41:30.846Z,45.47
2022-12-09T17:44:00.410Z,47.05
2022-12-09T17:46:28.465Z,44.88
2022-12-09T17:49:00.177Z,46.95
2022-12-09T17:51:32.414Z,44.92
2022-12-09T17:54:04.681Z,45.10
2022-12-09T17:56:32.746Z,45.58
2022-12-09T17:59:02.732Z,44.92
2022-12-09T18:01:34.031Z,45.47
2022-12-09T18:04:08.662Z,45.35
2022-12-09T18:06:38.184Z,44.63
2022-12-09T18:09:08.395Z,44.03
2022-12-09T18:11:36.813Z,44.35
2022-12-09T18:14:05.193Z,48.97
2022-12-09T18:16:33.482Z,50.88
2022-12-09T18:19:04.756Z,47.47
2022-12-09T18:21:33.488Z,48.22
2022-12-09T18:24:01.367Z,47.63
2022-12-09T18:26:32.960Z,49.17
2022-12-09T18:29:03.316Z,51.55
2022-12-09T18:31:31.402Z,52.75
2022-12-09T18:33:59.352Z,48.97
2022-12-09T18:36:29.245Z,47.17
2022-12-09T18:38:59.340Z,49.30
2022-12-09T18:41:29.567Z,48.33
2022-12-09T18:43:59.341Z,52.00
2022-12-09T18:46:30.073Z,52.17
2022-12-09T18:48:58.956Z,50.63
2022-12-09T18:51:29.676Z,47.08
2022-12-09T18:53:58.700Z,48.65
2022-12-09T18:56:27.571Z,50.85
2022-12-09T18:59:11.530Z,51.55
2022-12-09T19:01:41.685Z,51.72
2022-12-09T19:04:13.920Z,49.28
2022-12-09T19:06:45.019Z,38.20
2022-12-09T19:09:16.277Z,51.05
2022-12-09T19:11:46.163Z,53.92
2022-12-09T19:14:15.005Z,56.50
2022-12-09T19:16:43.799Z,52.65
2022-12-09T19:19:19.926Z,52.97
2022-12-09T19:21:51.387Z,50.78
2022-12-09T19:24:21.980Z,51.10
2022-12-09T19:26:51.190Z,49.40
2022-12-09T19:29:19.072Z,53.03
2022-12-09T19:31:48.975Z,51.17
2022-12-09T19:34:19.257Z,51.50
2022-12-09T19:36:49.021Z,49.03
2022-12-09T19:39:20.531Z,52.60
2022-12-09T19:41:48.832Z,105.38
2022-12-09T19:44:37.105Z,86.38
2022-12-09T19:47:06.865Z,64.45
2022-12-09T19:49:36.161Z,60.60
2022-12-09T19:52:04.162Z,59.38
2022-12-09T19:54:33.564Z,54.72
2022-12-09T19:57:01.462Z,49.22
2022-12-09T19:59:29.584Z,60.33
2022-12-09T20:01:57.610Z,57.28
2022-12-09T20:07:16.736Z,59.60
2022-12-09T20:09:46.049Z,50.22
2022-12-09T20:12:14.172Z,54.60
2022-12-09T20:14:43.084Z,51.15
2022-12-09T20:17:11.329Z,52.63
2022-12-09T20:19:39.259Z,50.45
2022-12-09T20:22:07.198Z,47.42
2022-12-09T20:24:35.099Z,47.50
2022-12-09T20:27:04.382Z,48.33
2022-12-09T20:29:37.324Z,45.17
2022-12-09T20:32:06.630Z,43.83
2022-12-09T20:34:35.014Z,48.20
2022-12-09T20:37:03.102Z,67.25
2022-12-09T20:39:31.030Z,60.95
2022-12-09T20:41:59.297Z,64.85
2022-12-09T20:44:29.045Z,55.63
2022-12-09T20:46:56.997Z,54.35
2022-12-09T20:49:27.063Z,50.47
2022-12-09T20:51:55.635Z,47.42
2022-12-09T20:54:24.104Z,43.63
2022-12-09T20:56:55.397Z,43.50
2022-12-09T20:59:24.035Z,44.67
2022-12-09T21:01:56.630Z,51.72
2022-12-09T21:04:24.991Z,41.90
2022-12-09T21:06:53.553Z,48.35
2022-12-09T21:09:24.709Z,45.30
2022-12-09T21:11:52.693Z,46.22
2022-12-09T21:14:21.039Z,43.50
2022-12-09T21:16:51.002Z,44.47
2022-12-09T21:19:24.875Z,45.38
2022-12-09T21:21:54.371Z,48.00
2022-12-09T21:24:24.046Z,48.10
2022-12-09T21:26:55.357Z,40.50
2022-12-09T21:29:29.920Z,44.85
2022-12-09T21:32:00.577Z,46.25
2022-12-09T21:34:29.905Z,43.10
2022-12-09T21:36:57.881Z,44.72
2022-12-09T21:39:25.971Z,45.33
2022-12-09T21:41:53.874Z,43.65
2022-12-09T21:44:22.300Z,46.40
2022-12-09T21:46:50.505Z,45.88
2022-12-09T21:49:18.385Z,43.25
2022-12-09T21:51:48.001Z,41.67
2022-12-09T21:54:16.138Z,41.78
2022-12-09T21:56:44.663Z,43.28
2022-12-09T21:59:12.619Z,42.58
2022-12-09T22:01:42.471Z,42.15
2022-12-09T22:04:12.563Z,50.83
2022-12-09T22:06:40.900Z,42.92
2022-12-09T22:09:11.636Z,43.25
2022-12-09T22:11:40.379Z,49.88
2022-12-09T22:14:10.426Z,48.92
2022-12-09T22:16:40.492Z,49.25
2022-12-09T22:19:09.997Z,48.00
2022-12-09T22:21:38.437Z,46.72
2022-12-09T22:24:09.229Z,48.83
2022-12-09T22:26:39.754Z,47.88
2022-12-09T22:29:08.198Z,45.80
2022-12-09T22:31:37.764Z,52.92
2022-12-09T22:34:07.496Z,44.67
2022-12-09T22:36:36.938Z,44.13
2022-12-09T22:39:06.636Z,47.42
2022-12-09T22:41:35.950Z,41.72
2022-12-09T22:44:05.971Z,48.03
2022-12-09T22:46:35.133Z,51.25
2022-12-09T22:49:05.622Z,47.83
2022-12-09T22:51:36.124Z,45.25
2022-12-09T22:54:06.850Z,45.90
2022-12-09T22:56:36.356Z,47.97
2022-12-09T22:59:05.917Z,48.80
2022-12-09T23:01:35.648Z,46.83
2022-12-09T23:04:04.345Z,50.08
2022-12-09T23:06:32.285Z,45.35
2022-12-09T23:09:00.167Z,47.28
2022-12-09T23:11:29.637Z,50.00
2022-12-09T23:13:59.319Z,45.22
2022-12-09T23:16:29.129Z,47.95
2022-12-09T23:18:58.438Z,50.13
2022-12-09T23:21:28.762Z,46.97
2022-12-09T23:23:59.103Z,54.83
2022-12-09T23:26:29.106Z,49.55
2022-12-09T23:28:59.951Z,49.70
2022-12-09T23:31:31.368Z,45.75
2022-12-09T23:33:59.992Z,51.75
2022-12-09T23:36:30.894Z,53.17
2022-12-09T23:39:00.291Z,52.92
2022-12-09T23:41:28.707Z,48.78
2022-12-09T23:43:56.935Z,48.90
2022-12-09T23:46:29.349Z,42.60
2022-12-09T23:48:58.132Z,43.78
2022-12-09T23:51:28.774Z,46.42
2022-12-09T23:53:58.722Z,49.30
2022-12-09T23:56:27.717Z,45.05
2022-12-09T23:58:56.928Z,43.05
